sensor_id;sensor_type;location;lat;lon;timestamp;pressure;altitude;pressure_sealevel;temperature;humidity
62124;BME280;48110;47.532;19.078;2023-04-20T00:01:49;100293.16;;;7.64;100.00
62124;BME280;48110;47.532;19.078;2023-04-20T00:04:52;100288.47;;;7.58;100.00
62124;BME280;48110;47.532;19.078;2023-04-20T00:07:54;100289.50;;;7.65;100.00
62124;BME280;48110;47.532;19.078;2023-04-20T00:10:57;100285.50;;;7.61;100.00
62124;BME280;48110;47.532;19.078;2023-04-20T00:13:59;100279.09;;;7.64;100.00
62124;BME280;48110;47.532;19.078;2023-04-20T00:17:02;100282.72;;;7.63;100.00
62124;BME280;48110;47.532;19.078;2023-04-20T00:20:04;100290.41;;;7.56;100.00
62124;BME280;48110;47.532;19.078;2023-04-20T00:23:07;100290.78;;;7.43;100.00
62124;BME280;48110;47.532;19.078;2023-04-20T00:26:09;100280.06;;;7.27;100.00
62124;BME280;48110;47.532;19.078;2023-04-20T00:29:13;100283.25;;;7.49;100.00
62124;BME280;48110;47.532;19.078;2023-04-20T00:32:16;100288.16;;;7.43;100.00
62124;BME280;48110;47.532;19.078;2023-04-20T00:35:18;100281.28;;;7.33;100.00
62124;BME280;48110;47.532;19.078;2023-04-20T00:38:21;100275.22;;;7.23;100.00
62124;BME280;48110;47.532;19.078;2023-04-20T00:41:24;100279.72;;;7.13;100.00
62124;BME280;48110;47.532;19.078;2023-04-20T00:44:27;100271.22;;;7.01;100.00
62124;BME280;48110;47.532;19.078;2023-04-20T00:47:30;100271.25;;;6.91;100.00
62124;BME280;48110;47.532;19.078;2023-04-20T00:50:33;100268.91;;;6.88;100.00
62124;BME280;48110;47.532;19.078;2023-04-20T00:53:36;100275.84;;;6.89;100.00
62124;BME280;48110;47.532;19.078;2023-04-20T00:56:38;100257.97;;;6.83;100.00
62124;BME280;48110;47.532;19.078;2023-04-20T00:59:42;100272.56;;;6.78;100.00
62124;BME280;48110;47.532;19.078;2023-04-20T01:02:44;100268.69;;;6.82;100.00
62124;BME280;48110;47.532;19.078;2023-04-20T01:05:47;100270.16;;;6.84;100.00
62124;BME280;48110;47.532;19.078;2023-04-20T01:08:50;100268.22;;;6.86;100.00
62124;BME280;48110;47.532;19.078;2023-04-20T01:11:53;100262.19;;;6.76;100.00
62124;BME280;48110;47.532;19.078;2023-04-20T01:14:56;100261.78;;;6.71;100.00
62124;BME280;48110;47.532;19.078;2023-04-20T01:17:59;100261.53;;;6.65;100.00
62124;BME280;48110;47.532;19.078;2023-04-20T01:21:01;100264.59;;;6.60;100.00
62124;BME280;48110;47.532;19.078;2023-04-20T01:24:05;100268.69;;;6.82;100.00
62124;BME280;48110;47.532;19.078;2023-04-20T01:27:08;100252.19;;;6.97;100.00
62124;BME280;48110;47.532;19.078;2023-04-20T01:30:11;100258.53;;;7.05;100.00
62124;BME280;48110;47.532;19.078;2023-04-20T01:33:13;100257.91;;;6.93;100.00
62124;BME280;48110;47.532;19.078;2023-04-20T01:36:16;100269.28;;;6.93;100.00
62124;BME280;48110;47.532;19.078;2023-04-20T01:39:19;100270.87;;;6.86;100.00
62124;BME280;48110;47.532;19.078;2023-04-20T01:42:22;100268.72;;;6.72;100.00
62124;BME280;48110;47.532;19.078;2023-04-20T01:45:24;100266.03;;;6.82;100.00
62124;BME280;48110;47.532;19.078;2023-04-20T01:48:27;100266.56;;;6.85;100.00
62124;BME280;48110;47.532;19.078;2023-04-20T01:51:29;100264.56;;;6.70;100.00
62124;BME280;48110;47.532;19.078;2023-04-20T01:54:32;100269.69;;;6.71;100.00
62124;BME280;48110;47.532;19.078;2023-04-20T01:57:35;100261.28;;;6.85;100.00
62124;BME280;48110;47.532;19.078;2023-04-20T02:00:38;100261.53;;;6.92;100.00
62124;BME280;48110;47.532;19.078;2023-04-20T02:03:41;100262.78;;;6.88;100.00
62124;BME280;48110;47.532;19.078;2023-04-20T02:06:43;100259.22;;;6.79;100.00
62124;BME280;48110;47.532;19.078;2023-04-20T02:09:46;100266.47;;;6.77;100.00
62124;BME280;48110;47.532;19.078;2023-04-20T02:12:49;100256.31;;;6.82;100.00
62124;BME280;48110;47.532;19.078;2023-04-20T02:15:52;100252.75;;;6.74;100.00
62124;BME280;48110;47.532;19.078;2023-04-20T02:18:56;100254.75;;;6.62;100.00
62124;BME280;48110;47.532;19.078;2023-04-20T02:21:59;100257.09;;;6.65;100.00
62124;BME280;48110;47.532;19.078;2023-04-20T02:25:03;100270.03;;;6.49;100.00
62124;BME280;48110;47.532;19.078;2023-04-20T02:28:06;100262.56;;;6.44;100.00
62124;BME280;48110;47.532;19.078;2023-04-20T02:31:08;100267.28;;;6.50;100.00
62124;BME280;48110;47.532;19.078;2023-04-20T02:34:11;100260.72;;;6.54;100.00
62124;BME280;48110;47.532;19.078;2023-04-20T02:37:13;100266.47;;;6.40;100.00
62124;BME280;48110;47.532;19.078;2023-04-20T02:40:16;100269.78;;;6.52;100.00
62124;BME280;48110;47.532;19.078;2023-04-20T02:43:19;100266.78;;;6.37;100.00
62124;BME280;48110;47.532;19.078;2023-04-20T02:46:22;100271.53;;;6.24;100.00
62124;BME280;48110;47.532;19.078;2023-04-20T02:49:25;100268.31;;;6.21;100.00
62124;BME280;48110;47.532;19.078;2023-04-20T02:52:27;100268.91;;;6.15;100.00
62124;BME280;48110;47.532;19.078;2023-04-20T02:55:30;100277.91;;;6.12;100.00
62124;BME280;48110;47.532;19.078;2023-04-20T02:58:34;100282.72;;;6.26;100.00
62124;BME280;48110;47.532;19.078;2023-04-20T03:01:37;100274.56;;;6.29;100.00
62124;BME280;48110;47.532;19.078;2023-04-20T03:04:46;100282.47;;;6.20;100.00
62124;BME280;48110;47.532;19.078;2023-04-20T03:07:49;100288.53;;;6.30;100.00
62124;BME280;48110;47.532;19.078;2023-04-20T03:10:51;100287.19;;;6.16;100.00
62124;BME280;48110;47.532;19.078;2023-04-20T03:13:55;100293.72;;;6.12;100.00
62124;BME280;48110;47.532;19.078;2023-04-20T03:16:57;100295.41;;;6.03;100.00
62124;BME280;48110;47.532;19.078;2023-04-20T03:20:00;100293.75;;;6.02;100.00
62124;BME280;48110;47.532;19.078;2023-04-20T03:23:03;100287.94;;;5.99;100.00
62124;BME280;48110;47.532;19.078;2023-04-20T03:26:05;100289.84;;;5.97;100.00
62124;BME280;48110;47.532;19.078;2023-04-20T03:29:09;100281.41;;;5.93;100.00
62124;BME280;48110;47.532;19.078;2023-04-20T03:32:12;100287.66;;;5.92;100.00
62124;BME280;48110;47.532;19.078;2023-04-20T03:35:14;100281.84;;;5.89;100.00
62124;BME280;48110;47.532;19.078;2023-04-20T03:38:19;100293.22;;;5.89;100.00
62124;BME280;48110;47.532;19.078;2023-04-20T03:41:22;100289.31;;;5.93;100.00
62124;BME280;48110;47.532;19.078;2023-04-20T03:44:25;100288.06;;;5.97;100.00
62124;BME280;48110;47.532;19.078;2023-04-20T03:47:27;100298.28;;;6.00;100.00
62124;BME280;48110;47.532;19.078;2023-04-20T03:50:30;100297.91;;;6.05;100.00
62124;BME280;48110;47.532;19.078;2023-04-20T03:53:33;100308.16;;;6.08;100.00
62124;BME280;48110;47.532;19.078;2023-04-20T03:56:36;100312.00;;;6.23;100.00
62124;BME280;48110;47.532;19.078;2023-04-20T03:59:39;100301.59;;;6.22;100.00
62124;BME280;48110;47.532;19.078;2023-04-20T04:02:42;100304.50;;;6.28;100.00
62124;BME280;48110;47.532;19.078;2023-04-20T04:05:45;100302.56;;;6.30;100.00
62124;BME280;48110;47.532;19.078;2023-04-20T04:08:48;100301.84;;;6.38;100.00
62124;BME280;48110;47.532;19.078;2023-04-20T04:11:50;100303.19;;;6.51;100.00
62124;BME280;48110;47.532;19.078;2023-04-20T04:14:53;100309.00;;;6.55;100.00
62124;BME280;48110;47.532;19.078;2023-04-20T04:17:57;100299.22;;;6.75;100.00
62124;BME280;48110;47.532;19.078;2023-04-20T04:20:59;100313.25;;;6.75;100.00
62124;BME280;48110;47.532;19.078;2023-04-20T04:24:02;100311.22;;;6.96;100.00
62124;BME280;48110;47.532;19.078;2023-04-20T04:27:07;100311.03;;;6.98;100.00
62124;BME280;48110;47.532;19.078;2023-04-20T04:30:10;100307.44;;;6.99;100.00
62124;BME280;48110;47.532;19.078;2023-04-20T04:33:14;100306.78;;;6.97;100.00
62124;BME280;48110;47.532;19.078;2023-04-20T04:36:20;100311.75;;;7.00;100.00
62124;BME280;48110;47.532;19.078;2023-04-20T04:39:23;100308.66;;;7.05;100.00
62124;BME280;48110;47.532;19.078;2023-04-20T04:42:26;100306.56;;;7.08;100.00
62124;BME280;48110;47.532;19.078;2023-04-20T04:45:30;100310.09;;;7.17;100.00
62124;BME280;48110;47.532;19.078;2023-04-20T04:48:33;100316.34;;;7.25;100.00
62124;BME280;48110;47.532;19.078;2023-04-20T04:51:38;100311.13;;;7.33;100.00
62124;BME280;48110;47.532;19.078;2023-04-20T04:54:41;100306.75;;;7.42;100.00
62124;BME280;48110;47.532;19.078;2023-04-20T04:57:43;100314.34;;;7.55;100.00
62124;BME280;48110;47.532;19.078;2023-04-20T05:00:46;100319.94;;;7.69;100.00
62124;BME280;48110;47.532;19.078;2023-04-20T05:03:49;100314.72;;;7.77;100.00
62124;BME280;48110;47.532;19.078;2023-04-20T05:06:51;100320.75;;;7.87;100.00
62124;BME280;48110;47.532;19.078;2023-04-20T05:09:54;100314.16;;;7.92;100.00
62124;BME280;48110;47.532;19.078;2023-04-20T05:12:56;100314.69;;;7.95;100.00
62124;BME280;48110;47.532;19.078;2023-04-20T05:16:02;100318.50;;;8.18;100.00
62124;BME280;48110;47.532;19.078;2023-04-20T05:19:04;100324.09;;;8.15;100.00
62124;BME280;48110;47.532;19.078;2023-04-20T05:22:07;100325.53;;;8.27;100.00
62124;BME280;48110;47.532;19.078;2023-04-20T05:25:10;100331.63;;;8.46;100.00
62124;BME280;48110;47.532;19.078;2023-04-20T05:28:15;100334.22;;;8.63;100.00
62124;BME280;48110;47.532;19.078;2023-04-20T05:31:18;100333.09;;;8.66;100.00
62124;BME280;48110;47.532;19.078;2023-04-20T05:34:21;100335.91;;;8.72;100.00
62124;BME280;48110;47.532;19.078;2023-04-20T05:37:24;100336.47;;;8.84;100.00
62124;BME280;48110;47.532;19.078;2023-04-20T05:40:26;100346.38;;;8.82;100.00
62124;BME280;48110;47.532;19.078;2023-04-20T05:43:32;100348.38;;;8.80;100.00
62124;BME280;48110;47.532;19.078;2023-04-20T05:46:34;100350.78;;;8.99;100.00
62124;BME280;48110;47.532;19.078;2023-04-20T05:49:39;100347.16;;;9.00;100.00
62124;BME280;48110;47.532;19.078;2023-04-20T05:52:42;100349.81;;;9.08;100.00
62124;BME280;48110;47.532;19.078;2023-04-20T05:55:44;100347.34;;;9.15;100.00
62124;BME280;48110;47.532;19.078;2023-04-20T05:58:47;100356.06;;;9.33;100.00
62124;BME280;48110;47.532;19.078;2023-04-20T06:01:49;100359.56;;;9.50;100.00
62124;BME280;48110;47.532;19.078;2023-04-20T06:04:53;100366.91;;;9.72;100.00
62124;BME280;48110;47.532;19.078;2023-04-20T06:07:55;100366.13;;;9.96;100.00
62124;BME280;48110;47.532;19.078;2023-04-20T06:10:59;100361.47;;;9.98;100.00
62124;BME280;48110;47.532;19.078;2023-04-20T06:14:01;100362.97;;;10.09;100.00
62124;BME280;48110;47.532;19.078;2023-04-20T06:17:04;100363.34;;;10.22;100.00
62124;BME280;48110;47.532;19.078;2023-04-20T06:20:09;100369.50;;;10.30;100.00
62124;BME280;48110;47.532;19.078;2023-04-20T06:23:12;100366.31;;;10.59;100.00
62124;BME280;48110;47.532;19.078;2023-04-20T06:26:18;100368.75;;;10.77;100.00
62124;BME280;48110;47.532;19.078;2023-04-20T06:29:21;100369.41;;;10.87;100.00
62124;BME280;48110;47.532;19.078;2023-04-20T06:32:23;100367.06;;;10.92;100.00
62124;BME280;48110;47.532;19.078;2023-04-20T06:35:26;100374.31;;;11.06;100.00
62124;BME280;48110;47.532;19.078;2023-04-20T06:38:29;100373.56;;;11.37;100.00
62124;BME280;48110;47.532;19.078;2023-04-20T06:41:31;100382.00;;;11.40;100.00
62124;BME280;48110;47.532;19.078;2023-04-20T06:44:39;100380.69;;;11.67;100.00
62124;BME280;48110;47.532;19.078;2023-04-20T06:47:42;100376.13;;;11.84;100.00
62124;BME280;48110;47.532;19.078;2023-04-20T06:50:48;100363.94;;;12.35;100.00
62124;BME280;48110;47.532;19.078;2023-04-20T06:53:51;100374.88;;;12.77;100.00
62124;BME280;48110;47.532;19.078;2023-04-20T06:56:53;100368.84;;;13.13;100.00
62124;BME280;48110;47.532;19.078;2023-04-20T06:59:56;100375.03;;;13.85;95.48
62124;BME280;48110;47.532;19.078;2023-04-20T07:03:00;100372.25;;;14.35;89.58
62124;BME280;48110;47.532;19.078;2023-04-20T07:06:04;100376.44;;;14.94;81.87
62124;BME280;48110;47.532;19.078;2023-04-20T07:09:08;100380.75;;;15.77;76.97
62124;BME280;48110;47.532;19.078;2023-04-20T07:12:11;100379.81;;;15.15;76.63
62124;BME280;48110;47.532;19.078;2023-04-20T07:15:16;100377.34;;;15.48;76.13
62124;BME280;48110;47.532;19.078;2023-04-20T07:18:21;100380.72;;;15.70;70.97
62124;BME280;48110;47.532;19.078;2023-04-20T07:21:23;100376.53;;;16.28;67.02
62124;BME280;48110;47.532;19.078;2023-04-20T07:24:26;100381.81;;;17.20;61.42
62124;BME280;48110;47.532;19.078;2023-04-20T07:27:30;100390.50;;;17.09;59.27
62124;BME280;48110;47.532;19.078;2023-04-20T07:30:36;100383.13;;;16.91;59.51
62124;BME280;48110;47.532;19.078;2023-04-20T07:33:38;100388.59;;;17.29;57.30
62124;BME280;48110;47.532;19.078;2023-04-20T07:36:41;100383.50;;;17.08;58.04
62124;BME280;48110;47.532;19.078;2023-04-20T07:39:44;100386.16;;;17.15;57.67
62124;BME280;48110;47.532;19.078;2023-04-20T07:42:46;100389.19;;;17.89;52.98
62124;BME280;48110;47.532;19.078;2023-04-20T07:45:49;100390.56;;;16.50;56.23
62124;BME280;48110;47.532;19.078;2023-04-20T07:48:51;100384.53;;;16.15;57.66
62124;BME280;48110;47.532;19.078;2023-04-20T07:51:54;100386.13;;;15.90;59.29
62124;BME280;48110;47.532;19.078;2023-04-20T07:55:10;100386.94;;;15.84;61.01
62124;BME280;48110;47.532;19.078;2023-04-20T07:58:15;100381.47;;;16.44;58.78
62124;BME280;48110;47.532;19.078;2023-04-20T08:01:22;100380.59;;;17.80;53.21
62124;BME280;48110;47.532;19.078;2023-04-20T08:04:24;100388.88;;;18.10;50.75
62124;BME280;48110;47.532;19.078;2023-04-20T08:07:28;100388.16;;;18.21;51.08
62124;BME280;48110;47.532;19.078;2023-04-20T08:10:31;100382.63;;;18.16;51.35
62124;BME280;48110;47.532;19.078;2023-04-20T08:13:34;100387.25;;;20.23;47.73
62124;BME280;48110;47.532;19.078;2023-04-20T08:16:37;100390.31;;;19.30;48.30
62124;BME280;48110;47.532;19.078;2023-04-20T08:19:39;100379.16;;;21.62;43.83
62124;BME280;48110;47.532;19.078;2023-04-20T08:22:46;100382.91;;;21.90;40.84
62124;BME280;48110;47.532;19.078;2023-04-20T08:25:48;100386.06;;;22.43;39.85
62124;BME280;48110;47.532;19.078;2023-04-20T08:28:51;100379.63;;;21.59;41.27
62124;BME280;48110;47.532;19.078;2023-04-20T08:31:53;100376.78;;;20.68;42.78
62124;BME280;48110;47.532;19.078;2023-04-20T08:34:56;100376.88;;;21.31;40.95
62124;BME280;48110;47.532;19.078;2023-04-20T08:37:58;100383.13;;;21.60;40.54
62124;BME280;48110;47.532;19.078;2023-04-20T08:41:01;100371.31;;;20.21;44.41
62124;BME280;48110;47.532;19.078;2023-04-20T08:44:04;100365.16;;;21.25;41.93
62124;BME280;48110;47.532;19.078;2023-04-20T08:47:08;100375.56;;;21.45;41.75
62124;BME280;48110;47.532;19.078;2023-04-20T08:50:10;100368.97;;;19.83;43.38
62124;BME280;48110;47.532;19.078;2023-04-20T08:53:13;100368.00;;;20.72;41.94
62124;BME280;48110;47.532;19.078;2023-04-20T08:56:16;100373.06;;;20.57;41.99
62124;BME280;48110;47.532;19.078;2023-04-20T08:59:18;100367.91;;;20.91;40.84
62124;BME280;48110;47.532;19.078;2023-04-20T09:02:21;100374.00;;;22.68;38.92
62124;BME280;48110;47.532;19.078;2023-04-20T09:05:28;100370.13;;;21.85;40.17
62124;BME280;48110;47.532;19.078;2023-04-20T09:08:37;100370.47;;;23.61;36.98
62124;BME280;48110;47.532;19.078;2023-04-20T09:11:40;100376.78;;;23.93;37.48
62124;BME280;48110;47.532;19.078;2023-04-20T09:14:43;100375.56;;;25.01;33.85
62124;BME280;48110;47.532;19.078;2023-04-20T09:17:46;100373.78;;;23.68;36.33
62124;BME280;48110;47.532;19.078;2023-04-20T09:20:49;100367.34;;;22.70;35.68
62124;BME280;48110;47.532;19.078;2023-04-20T09:24:04;100366.81;;;20.68;40.50
62124;BME280;48110;47.532;19.078;2023-04-20T09:27:14;100363.47;;;21.48;40.09
62124;BME280;48110;47.532;19.078;2023-04-20T09:30:17;100362.63;;;22.49;37.28
62124;BME280;48110;47.532;19.078;2023-04-20T09:33:19;100370.50;;;23.44;37.00
62124;BME280;48110;47.532;19.078;2023-04-20T09:39:41;100361.59;;;21.48;38.53
62124;BME280;48110;47.532;19.078;2023-04-20T09:42:45;100360.75;;;22.49;37.40
62124;BME280;48110;47.532;19.078;2023-04-20T09:45:50;100363.63;;;24.07;34.81
62124;BME280;48110;47.532;19.078;2023-04-20T09:48:53;100361.78;;;20.83;39.08
62124;BME280;48110;47.532;19.078;2023-04-20T09:51:56;100361.34;;;22.85;35.98
62124;BME280;48110;47.532;19.078;2023-04-20T09:58:02;100352.97;;;24.54;32.90
62124;BME280;48110;47.532;19.078;2023-04-20T10:01:08;100349.41;;;23.24;35.12
62124;BME280;48110;47.532;19.078;2023-04-20T10:04:11;100345.16;;;21.50;38.85
62124;BME280;48110;47.532;19.078;2023-04-20T10:07:21;100339.28;;;19.24;41.85
62124;BME280;48110;47.532;19.078;2023-04-20T10:10:25;100332.81;;;18.45;44.59
62124;BME280;48110;47.532;19.078;2023-04-20T10:13:32;100341.72;;;18.89;43.80
62124;BME280;48110;47.532;19.078;2023-04-20T10:16:34;100336.41;;;18.39;44.63
62124;BME280;48110;47.532;19.078;2023-04-20T10:19:43;100329.69;;;18.23;44.53
62124;BME280;48110;47.532;19.078;2023-04-20T10:22:47;100331.56;;;17.60;46.33
62124;BME280;48110;47.532;19.078;2023-04-20T10:25:56;100326.62;;;18.20;44.94
62124;BME280;48110;47.532;19.078;2023-04-20T10:28:59;100322.50;;;18.17;44.58
62124;BME280;48110;47.532;19.078;2023-04-20T10:32:03;100330.53;;;18.49;45.05
62124;BME280;48110;47.532;19.078;2023-04-20T10:35:08;100327.38;;;18.77;45.49
62124;BME280;48110;47.532;19.078;2023-04-20T10:38:11;100319.53;;;18.75;44.03
62124;BME280;48110;47.532;19.078;2023-04-20T10:41:14;100313.75;;;18.04;45.20
62124;BME280;48110;47.532;19.078;2023-04-20T10:44:16;100316.69;;;20.03;42.38
62124;BME280;48110;47.532;19.078;2023-04-20T10:47:29;100322.25;;;21.81;39.24
62124;BME280;48110;47.532;19.078;2023-04-20T10:50:32;100313.91;;;20.21;40.34
62124;BME280;48110;47.532;19.078;2023-04-20T10:53:35;100308.72;;;19.66;40.48
62124;BME280;48110;47.532;19.078;2023-04-20T10:59:43;100308.81;;;21.41;38.95
62124;BME280;48110;47.532;19.078;2023-04-20T11:02:53;100306.88;;;21.13;38.83
62124;BME280;48110;47.532;19.078;2023-04-20T11:05:57;100304.22;;;21.98;36.70
62124;BME280;48110;47.532;19.078;2023-04-20T11:12:24;100284.19;;;23.74;33.24
62124;BME280;48110;47.532;19.078;2023-04-20T11:15:32;100293.63;;;21.51;36.68
62124;BME280;48110;47.532;19.078;2023-04-20T11:18:36;100295.47;;;26.52;30.33
62124;BME280;48110;47.532;19.078;2023-04-20T11:21:39;100293.81;;;25.90;30.53
62124;BME280;48110;47.532;19.078;2023-04-20T11:24:42;100290.97;;;29.58;26.20
62124;BME280;48110;47.532;19.078;2023-04-20T11:27:45;100281.22;;;27.06;28.06
62124;BME280;48110;47.532;19.078;2023-04-20T11:30:48;100284.63;;;26.27;29.09
62124;BME280;48110;47.532;19.078;2023-04-20T11:33:52;100261.56;;;21.27;36.34
62124;BME280;48110;47.532;19.078;2023-04-20T11:36:55;100270.63;;;20.46;38.61
62124;BME280;48110;47.532;19.078;2023-04-20T11:39:58;100271.13;;;23.18;34.65
62124;BME280;48110;47.532;19.078;2023-04-20T11:43:01;100268.56;;;25.70;30.25
62124;BME280;48110;47.532;19.078;2023-04-20T11:46:15;100275.84;;;26.70;28.87
62124;BME280;48110;47.532;19.078;2023-04-20T11:49:19;100274.03;;;22.56;31.75
62124;BME280;48110;47.532;19.078;2023-04-20T11:52:22;100275.00;;;20.98;35.64
62124;BME280;48110;47.532;19.078;2023-04-20T11:55:24;100270.87;;;20.32;36.67
62124;BME280;48110;47.532;19.078;2023-04-20T11:58:29;100276.03;;;21.77;34.88
62124;BME280;48110;47.532;19.078;2023-04-20T12:01:32;100266.25;;;24.74;30.82
62124;BME280;48110;47.532;19.078;2023-04-20T12:04:34;100272.41;;;23.86;31.61
62124;BME280;48110;47.532;19.078;2023-04-20T12:07:37;100267.22;;;26.23;27.91
62124;BME280;48110;47.532;19.078;2023-04-20T12:10:40;100267.16;;;26.53;27.75
62124;BME280;48110;47.532;19.078;2023-04-20T12:13:43;100278.69;;;28.07;26.12
62124;BME280;48110;47.532;19.078;2023-04-20T12:16:45;100256.38;;;28.34;25.69
62124;BME280;48110;47.532;19.078;2023-04-20T12:19:48;100259.69;;;29.26;25.15
62124;BME280;48110;47.532;19.078;2023-04-20T12:22:50;100260.63;;;31.25;23.44
62124;BME280;48110;47.532;19.078;2023-04-20T12:25:53;100255.00;;;31.79;22.25
62124;BME280;48110;47.532;19.078;2023-04-20T12:28:56;100258.97;;;33.19;20.50
62124;BME280;48110;47.532;19.078;2023-04-20T12:31:59;100256.19;;;31.51;22.01
62124;BME280;48110;47.532;19.078;2023-04-20T12:35:02;100242.16;;;28.61;23.99
62124;BME280;48110;47.532;19.078;2023-04-20T12:38:04;100245.09;;;30.79;21.13
62124;BME280;48110;47.532;19.078;2023-04-20T12:41:11;100245.16;;;26.19;25.99
62124;BME280;48110;47.532;19.078;2023-04-20T12:44:14;100243.94;;;29.93;22.58
62124;BME280;48110;47.532;19.078;2023-04-20T12:47:17;100234.31;;;27.14;24.34
62124;BME280;48110;47.532;19.078;2023-04-20T12:50:19;100236.22;;;29.02;23.15
62124;BME280;48110;47.532;19.078;2023-04-20T12:53:22;100235.81;;;30.20;22.12
62124;BME280;48110;47.532;19.078;2023-04-20T12:56:25;100228.69;;;32.23;20.08
62124;BME280;48110;47.532;19.078;2023-04-20T12:59:28;100231.97;;;35.12;18.04
62124;BME280;48110;47.532;19.078;2023-04-20T13:02:31;100226.06;;;31.37;21.18
62124;BME280;48110;47.532;19.078;2023-04-20T13:05:34;100234.44;;;35.76;17.57
62124;BME280;48110;47.532;19.078;2023-04-20T13:08:36;100222.69;;;34.12;18.75
62124;BME280;48110;47.532;19.078;2023-04-20T13:11:39;100217.94;;;31.46;20.96
62124;BME280;48110;47.532;19.078;2023-04-20T13:14:41;100227.28;;;33.73;18.46
62124;BME280;48110;47.532;19.078;2023-04-20T13:17:45;100222.06;;;34.91;17.63
62124;BME280;48110;47.532;19.078;2023-04-20T13:20:47;100217.94;;;35.47;17.78
62124;BME280;48110;47.532;19.078;2023-04-20T13:23:50;100208.78;;;30.33;21.45
62124;BME280;48110;47.532;19.078;2023-04-20T13:26:55;100204.62;;;27.61;24.39
62124;BME280;48110;47.532;19.078;2023-04-20T13:29:58;100200.88;;;24.71;28.54
62124;BME280;48110;47.532;19.078;2023-04-20T13:33:01;100209.84;;;25.84;27.24
62124;BME280;48110;47.532;19.078;2023-04-20T13:36:03;100195.03;;;25.04;27.21
62124;BME280;48110;47.532;19.078;2023-04-20T13:39:06;100201.69;;;27.48;24.35
62124;BME280;48110;47.532;19.078;2023-04-20T13:42:09;100199.31;;;26.82;25.57
62124;BME280;48110;47.532;19.078;2023-04-20T13:45:11;100194.62;;;25.78;26.03
62124;BME280;48110;47.532;19.078;2023-04-20T13:48:14;100188.53;;;25.05;27.78
62124;BME280;48110;47.532;19.078;2023-04-20T13:51:16;100191.34;;;21.83;32.14
62124;BME280;48110;47.532;19.078;2023-04-20T13:54:19;100201.25;;;22.11;30.77
62124;BME280;48110;47.532;19.078;2023-04-20T13:57:23;100179.25;;;23.06;29.74
62124;BME280;48110;47.532;19.078;2023-04-20T14:00:25;100189.09;;;26.49;26.29
62124;BME280;48110;47.532;19.078;2023-04-20T14:03:28;100187.50;;;31.34;20.39
62124;BME280;48110;47.532;19.078;2023-04-20T14:06:31;100189.59;;;31.01;20.72
62124;BME280;48110;47.532;19.078;2023-04-20T14:09:33;100177.44;;;27.46;23.50
62124;BME280;48110;47.532;19.078;2023-04-20T14:12:36;100178.81;;;26.20;25.30
62124;BME280;48110;47.532;19.078;2023-04-20T14:15:38;100172.00;;;26.43;25.24
62124;BME280;48110;47.532;19.078;2023-04-20T14:18:41;100163.31;;;26.26;25.14
62124;BME280;48110;47.532;19.078;2023-04-20T14:21:44;100165.53;;;25.48;26.59
62124;BME280;48110;47.532;19.078;2023-04-20T14:24:48;100157.34;;;26.19;25.26
62124;BME280;48110;47.532;19.078;2023-04-20T14:27:50;100166.47;;;27.61;24.07
62124;BME280;48110;47.532;19.078;2023-04-20T14:30:53;100154.12;;;27.35;24.69
62124;BME280;48110;47.532;19.078;2023-04-20T14:33:56;100151.63;;;28.30;22.82
62124;BME280;48110;47.532;19.078;2023-04-20T14:36:58;100155.25;;;25.70;26.51
62124;BME280;48110;47.532;19.078;2023-04-20T14:40:01;100145.34;;;23.25;29.23
62124;BME280;48110;47.532;19.078;2023-04-20T14:43:03;100138.34;;;22.16;31.45
62124;BME280;48110;47.532;19.078;2023-04-20T14:46:06;100143.28;;;21.85;33.24
62124;BME280;48110;47.532;19.078;2023-04-20T14:49:09;100148.72;;;20.95;34.20
62124;BME280;48110;47.532;19.078;2023-04-20T14:52:12;100154.12;;;20.95;34.29
62124;BME280;48110;47.532;19.078;2023-04-20T14:55:14;100144.75;;;20.58;35.03
62124;BME280;48110;47.532;19.078;2023-04-20T14:58:17;100146.81;;;20.67;33.97
62124;BME280;48110;47.532;19.078;2023-04-20T15:01:20;100143.75;;;20.47;34.37
62124;BME280;48110;47.532;19.078;2023-04-20T15:04:23;100141.13;;;20.29;34.61
62124;BME280;48110;47.532;19.078;2023-04-20T15:07:26;100136.00;;;20.39;35.04
62124;BME280;48110;47.532;19.078;2023-04-20T15:10:33;100135.66;;;20.47;34.06
62124;BME280;48110;47.532;19.078;2023-04-20T15:13:39;100140.06;;;20.53;34.67
62124;BME280;48110;47.532;19.078;2023-04-20T15:16:43;100130.28;;;20.01;35.02
62124;BME280;48110;47.532;19.078;2023-04-20T15:19:46;100132.31;;;19.93;35.77
62124;BME280;48110;47.532;19.078;2023-04-20T15:22:48;100136.53;;;19.89;35.94
62124;BME280;48110;47.532;19.078;2023-04-20T15:25:51;100142.37;;;19.75;35.66
62124;BME280;48110;47.532;19.078;2023-04-20T15:28:54;100136.00;;;19.58;36.86
62124;BME280;48110;47.532;19.078;2023-04-20T15:31:57;100131.34;;;19.88;35.67
62124;BME280;48110;47.532;19.078;2023-04-20T15:35:00;100142.00;;;19.94;35.48
62124;BME280;48110;47.532;19.078;2023-04-20T15:38:03;100143.00;;;20.28;34.79
62124;BME280;48110;47.532;19.078;2023-04-20T15:41:06;100139.75;;;20.26;35.60
62124;BME280;48110;47.532;19.078;2023-04-20T15:44:08;100143.62;;;20.19;35.44
62124;BME280;48110;47.532;19.078;2023-04-20T15:47:11;100136.72;;;20.23;35.66
62124;BME280;48110;47.532;19.078;2023-04-20T15:50:13;100139.44;;;19.65;36.03
62124;BME280;48110;47.532;19.078;2023-04-20T15:53:16;100144.56;;;19.55;37.11
62124;BME280;48110;47.532;19.078;2023-04-20T15:56:18;100158.50;;;19.33;37.62
62124;BME280;48110;47.532;19.078;2023-04-20T15:59:24;100157.53;;;19.46;40.06